sensor_id;sensor_type;location;lat;lon;timestamp;temperature;humidity
46508;DHT22;32223;53.654;10.014;2022-11-14T00:01:59;8.30;99.90
46508;DHT22;32223;53.654;10.014;2022-11-14T00:04:24;8.20;99.90
46508;DHT22;32223;53.654;10.014;2022-11-14T00:06:50;8.20;99.90
46508;DHT22;32223;53.654;10.014;2022-11-14T00:09:16;8.20;99.90
46508;DHT22;32223;53.654;10.014;2022-11-14T00:11:41;8.20;99.90
46508;DHT22;32223;53.654;10.014;2022-11-14T00:14:09;8.20;99.90
46508;DHT22;32223;53.654;10.014;2022-11-14T00:16:34;8.20;99.90
46508;DHT22;32223;53.654;10.014;2022-11-14T00:19:00;8.10;99.90
46508;DHT22;32223;53.654;10.014;2022-11-14T00:21:26;8.10;99.90
46508;DHT22;32223;53.654;10.014;2022-11-14T00:23:51;8.00;99.90
46508;DHT22;32223;53.654;10.014;2022-11-14T00:26:17;8.00;99.90
46508;DHT22;32223;53.654;10.014;2022-11-14T00:28:42;8.00;99.90
46508;DHT22;32223;53.654;10.014;2022-11-14T00:31:09;8.00;99.90
46508;DHT22;32223;53.654;10.014;2022-11-14T00:33:35;8.00;99.90
46508;DHT22;32223;53.654;10.014;2022-11-14T00:36:00;7.90;99.90
46508;DHT22;32223;53.654;10.014;2022-11-14T00:38:26;7.90;99.90
46508;DHT22;32223;53.654;10.014;2022-11-14T00:40:52;7.90;99.90
46508;DHT22;32223;53.654;10.014;2022-11-14T00:43:17;7.90;99.90
46508;DHT22;32223;53.654;10.014;2022-11-14T00:45:43;7.80;99.90
46508;DHT22;32223;53.654;10.014;2022-11-14T00:48:09;7.80;99.90
46508;DHT22;32223;53.654;10.014;2022-11-14T00:50:35;7.80;99.90
46508;DHT22;32223;53.654;10.014;2022-11-14T00:53:02;7.80;99.90
46508;DHT22;32223;53.654;10.014;2022-11-14T00:55:28;7.80;99.90
46508;DHT22;32223;53.654;10.014;2022-11-14T00:57:53;7.80;99.90
46508;DHT22;32223;53.654;10.014;2022-11-14T01:00:19;7.70;99.90
46508;DHT22;32223;53.654;10.014;2022-11-14T01:02:45;7.70;99.90
46508;DHT22;32223;53.654;10.014;2022-11-14T01:05:10;7.70;99.90
46508;DHT22;32223;53.654;10.014;2022-11-14T01:07:36;7.70;99.90
46508;DHT22;32223;53.654;10.014;2022-11-14T01:10:01;7.70;99.90
46508;DHT22;32223;53.654;10.014;2022-11-14T01:12:27;7.70;99.90
46508;DHT22;32223;53.654;10.014;2022-11-14T01:14:52;7.60;99.90
46508;DHT22;32223;53.654;10.014;2022-11-14T01:17:18;7.50;99.90
46508;DHT22;32223;53.654;10.014;2022-11-14T01:19:44;7.50;99.90
46508;DHT22;32223;53.654;10.014;2022-11-14T01:22:09;7.50;99.90
46508;DHT22;32223;53.654;10.014;2022-11-14T01:24:35;7.50;99.90
46508;DHT22;32223;53.654;10.014;2022-11-14T01:27:00;7.50;99.90
46508;DHT22;32223;53.654;10.014;2022-11-14T01:29:26;7.50;99.90
46508;DHT22;32223;53.654;10.014;2022-11-14T01:31:52;7.50;99.90
46508;DHT22;32223;53.654;10.014;2022-11-14T01:34:18;7.50;99.90
46508;DHT22;32223;53.654;10.014;2022-11-14T01:36:45;7.50;99.90
46508;DHT22;32223;53.654;10.014;2022-11-14T01:39:10;7.50;99.90
46508;DHT22;32223;53.654;10.014;2022-11-14T01:41:36;7.40;99.90
46508;DHT22;32223;53.654;10.014;2022-11-14T01:44:01;7.50;99.90
46508;DHT22;32223;53.654;10.014;2022-11-14T01:46:33;7.50;99.90
46508;DHT22;32223;53.654;10.014;2022-11-14T01:49:14;7.40;99.90
46508;DHT22;32223;53.654;10.014;2022-11-14T01:51:50;7.40;99.90
46508;DHT22;32223;53.654;10.014;2022-11-14T01:54:25;7.40;99.90
46508;DHT22;32223;53.654;10.014;2022-11-14T01:56:56;7.40;99.90
46508;DHT22;32223;53.654;10.014;2022-11-14T01:59:26;7.40;99.90
46508;DHT22;32223;53.654;10.014;2022-11-14T02:01:54;7.40;99.90
46508;DHT22;32223;53.654;10.014;2022-11-14T02:04:30;7.40;99.90
46508;DHT22;32223;53.654;10.014;2022-11-14T02:06:59;7.40;99.90
46508;DHT22;32223;53.654;10.014;2022-11-14T02:09:28;7.40;99.90
46508;DHT22;32223;53.654;10.014;2022-11-14T02:11:57;7.40;99.90
46508;DHT22;32223;53.654;10.014;2022-11-14T02:14:23;7.40;99.90
46508;DHT22;32223;53.654;10.014;2022-11-14T02:16:48;7.40;99.90
46508;DHT22;32223;53.654;10.014;2022-11-14T02:19:14;7.30;99.90
46508;DHT22;32223;53.654;10.014;2022-11-14T02:21:41;7.30;99.90
46508;DHT22;32223;53.654;10.014;2022-11-14T02:24:12;7.40;99.90
46508;DHT22;32223;53.654;10.014;2022-11-14T02:26:39;7.30;99.90
46508;DHT22;32223;53.654;10.014;2022-11-14T02:29:07;7.30;99.90
46508;DHT22;32223;53.654;10.014;2022-11-14T02:31:33;7.20;99.90
46508;DHT22;32223;53.654;10.014;2022-11-14T02:33:59;7.30;99.90
46508;DHT22;32223;53.654;10.014;2022-11-14T02:36:24;7.30;99.90
46508;DHT22;32223;53.654;10.014;2022-11-14T02:38:50;7.30;99.90
46508;DHT22;32223;53.654;10.014;2022-11-14T02:41:16;7.30;99.90
46508;DHT22;32223;53.654;10.014;2022-11-14T02:43:42;7.30;99.90
46508;DHT22;32223;53.654;10.014;2022-11-14T02:46:07;7.30;99.90
46508;DHT22;32223;53.654;10.014;2022-11-14T02:48:33;7.30;99.90
46508;DHT22;32223;53.654;10.014;2022-11-14T02:50:58;7.30;99.90
46508;DHT22;32223;53.654;10.014;2022-11-14T02:53:24;7.30;99.90
46508;DHT22;32223;53.654;10.014;2022-11-14T02:55:50;7.30;99.90
46508;DHT22;32223;53.654;10.014;2022-11-14T02:58:15;7.30;99.90
46508;DHT22;32223;53.654;10.014;2022-11-14T03:00:41;7.30;99.90
46508;DHT22;32223;53.654;10.014;2022-11-14T03:03:06;7.20;99.90
46508;DHT22;32223;53.654;10.014;2022-11-14T03:05:32;7.30;99.90
46508;DHT22;32223;53.654;10.014;2022-11-14T03:07:57;7.30;99.90
46508;DHT22;32223;53.654;10.014;2022-11-14T03:10:23;7.20;99.90
46508;DHT22;32223;53.654;10.014;2022-11-14T03:12:55;7.20;99.90
46508;DHT22;32223;53.654;10.014;2022-11-14T03:15:22;7.20;99.90
46508;DHT22;32223;53.654;10.014;2022-11-14T03:17:48;7.20;99.90
46508;DHT22;32223;53.654;10.014;2022-11-14T03:20:13;7.20;99.90
46508;DHT22;32223;53.654;10.014;2022-11-14T03:22:39;7.20;99.90
46508;DHT22;32223;53.654;10.014;2022-11-14T03:25:05;7.30;99.90
46508;DHT22;32223;53.654;10.014;2022-11-14T03:27:30;7.20;99.90
46508;DHT22;32223;53.654;10.014;2022-11-14T03:29:56;7.20;99.90
46508;DHT22;32223;53.654;10.014;2022-11-14T03:32:22;7.30;99.90
46508;DHT22;32223;53.654;10.014;2022-11-14T03:34:47;7.20;99.90
46508;DHT22;32223;53.654;10.014;2022-11-14T03:37:13;7.20;99.90
46508;DHT22;32223;53.654;10.014;2022-11-14T03:39:38;7.30;99.90
46508;DHT22;32223;53.654;10.014;2022-11-14T03:42:04;7.20;99.90
46508;DHT22;32223;53.654;10.014;2022-11-14T03:44:30;7.20;99.90
46508;DHT22;32223;53.654;10.014;2022-11-14T03:46:55;7.20;99.90
46508;DHT22;32223;53.654;10.014;2022-11-14T03:49:21;7.20;99.90
46508;DHT22;32223;53.654;10.014;2022-11-14T03:51:46;7.20;99.90
46508;DHT22;32223;53.654;10.014;2022-11-14T03:54:12;7.20;99.90
46508;DHT22;32223;53.654;10.014;2022-11-14T03:56:38;7.20;99.90
46508;DHT22;32223;53.654;10.014;2022-11-14T03:59:03;7.20;99.90
46508;DHT22;32223;53.654;10.014;2022-11-14T04:01:29;7.20;99.90
46508;DHT22;32223;53.654;10.014;2022-11-14T04:03:55;7.20;99.90
46508;DHT22;32223;53.654;10.014;2022-11-14T04:06:20;7.20;99.90
46508;DHT22;32223;53.654;10.014;2022-11-14T04:08:46;7.20;99.90
46508;DHT22;32223;53.654;10.014;2022-11-14T04:11:12;7.20;99.90
46508;DHT22;32223;53.654;10.014;2022-11-14T04:13:37;7.20;99.90
46508;DHT22;32223;53.654;10.014;2022-11-14T04:16:03;7.10;99.90
46508;DHT22;32223;53.654;10.014;2022-11-14T04:18:29;7.20;99.90
46508;DHT22;32223;53.654;10.014;2022-11-14T04:20:54;7.20;99.90
46508;DHT22;32223;53.654;10.014;2022-11-14T04:23:20;7.20;99.90
46508;DHT22;32223;53.654;10.014;2022-11-14T04:25:46;7.20;99.90
46508;DHT22;32223;53.654;10.014;2022-11-14T04:28:12;7.20;99.90
46508;DHT22;32223;53.654;10.014;2022-11-14T04:30:38;7.10;99.90
46508;DHT22;32223;53.654;10.014;2022-11-14T04:33:04;7.20;99.90
46508;DHT22;32223;53.654;10.014;2022-11-14T04:35:30;7.20;99.90
46508;DHT22;32223;53.654;10.014;2022-11-14T04:37:56;7.20;99.90
46508;DHT22;32223;53.654;10.014;2022-11-14T04:40:21;7.20;99.90
46508;DHT22;32223;53.654;10.014;2022-11-14T04:42:47;7.20;99.90
46508;DHT22;32223;53.654;10.014;2022-11-14T04:45:13;7.20;99.90
46508;DHT22;32223;53.654;10.014;2022-11-14T04:47:41;7.10;99.90
46508;DHT22;32223;53.654;10.014;2022-11-14T04:50:07;7.10;99.90
46508;DHT22;32223;53.654;10.014;2022-11-14T04:52:33;7.10;99.90
46508;DHT22;32223;53.654;10.014;2022-11-14T04:54:58;7.10;99.90
46508;DHT22;32223;53.654;10.014;2022-11-14T04:57:24;7.10;99.90
46508;DHT22;32223;53.654;10.014;2022-11-14T04:59:50;7.00;99.90
46508;DHT22;32223;53.654;10.014;2022-11-14T05:02:15;7.20;99.90
46508;DHT22;32223;53.654;10.014;2022-11-14T05:04:41;7.10;99.90
46508;DHT22;32223;53.654;10.014;2022-11-14T05:07:08;7.10;99.90
46508;DHT22;32223;53.654;10.014;2022-11-14T05:09:34;7.10;99.90
46508;DHT22;32223;53.654;10.014;2022-11-14T05:12:01;7.10;99.90
46508;DHT22;32223;53.654;10.014;2022-11-14T05:14:27;7.10;99.90
46508;DHT22;32223;53.654;10.014;2022-11-14T05:16:53;7.10;99.90
46508;DHT22;32223;53.654;10.014;2022-11-14T05:19:18;7.10;99.90
46508;DHT22;32223;53.654;10.014;2022-11-14T05:21:44;7.10;99.90
46508;DHT22;32223;53.654;10.014;2022-11-14T05:24:09;7.10;99.90
46508;DHT22;32223;53.654;10.014;2022-11-14T05:26:35;7.10;99.90
46508;DHT22;32223;53.654;10.014;2022-11-14T05:29:01;7.00;99.90
46508;DHT22;32223;53.654;10.014;2022-11-14T05:31:26;7.10;99.90
46508;DHT22;32223;53.654;10.014;2022-11-14T05:33:52;7.10;99.90
46508;DHT22;32223;53.654;10.014;2022-11-14T05:36:17;7.10;99.90
46508;DHT22;32223;53.654;10.014;2022-11-14T05:38:43;7.10;99.90
46508;DHT22;32223;53.654;10.014;2022-11-14T05:41:11;7.10;99.90
46508;DHT22;32223;53.654;10.014;2022-11-14T05:43:37;7.10;99.90
46508;DHT22;32223;53.654;10.014;2022-11-14T05:46:05;7.00;99.90
46508;DHT22;32223;53.654;10.014;2022-11-14T05:48:32;7.00;99.90
46508;DHT22;32223;53.654;10.014;2022-11-14T05:50:59;7.00;99.90
46508;DHT22;32223;53.654;10.014;2022-11-14T05:53:26;7.00;99.90
46508;DHT22;32223;53.654;10.014;2022-11-14T05:55:52;7.00;99.90
46508;DHT22;32223;53.654;10.014;2022-11-14T05:58:18;7.00;99.90
46508;DHT22;32223;53.654;10.014;2022-11-14T06:00:44;7.00;99.90
46508;DHT22;32223;53.654;10.014;2022-11-14T06:03:09;7.00;99.90
46508;DHT22;32223;53.654;10.014;2022-11-14T06:05:35;7.00;99.90
46508;DHT22;32223;53.654;10.014;2022-11-14T06:08:01;7.00;99.90
46508;DHT22;32223;53.654;10.014;2022-11-14T06:10:27;7.00;99.90
46508;DHT22;32223;53.654;10.014;2022-11-14T06:12:53;7.00;99.90
46508;DHT22;32223;53.654;10.014;2022-11-14T06:15:19;6.90;99.90
46508;DHT22;32223;53.654;10.014;2022-11-14T06:17:45;6.90;99.90
46508;DHT22;32223;53.654;10.014;2022-11-14T06:20:11;7.00;99.90
46508;DHT22;32223;53.654;10.014;2022-11-14T06:22:41;6.90;99.90
46508;DHT22;32223;53.654;10.014;2022-11-14T06:25:07;6.90;99.90
46508;DHT22;32223;53.654;10.014;2022-11-14T06:27:33;6.90;99.90
46508;DHT22;32223;53.654;10.014;2022-11-14T06:29:59;6.80;99.90
46508;DHT22;32223;53.654;10.014;2022-11-14T06:32:24;6.80;99.90
46508;DHT22;32223;53.654;10.014;2022-11-14T06:34:50;6.80;99.90
46508;DHT22;32223;53.654;10.014;2022-11-14T06:37:16;6.80;99.90
46508;DHT22;32223;53.654;10.014;2022-11-14T06:39:41;6.80;99.90
46508;DHT22;32223;53.654;10.014;2022-11-14T06:42:07;6.90;99.90
46508;DHT22;32223;53.654;10.014;2022-11-14T06:44:32;6.90;99.90
46508;DHT22;32223;53.654;10.014;2022-11-14T06:46:58;6.90;99.90
46508;DHT22;32223;53.654;10.014;2022-11-14T06:49:24;6.90;99.90
46508;DHT22;32223;53.654;10.014;2022-11-14T06:51:50;6.90;99.90
46508;DHT22;32223;53.654;10.014;2022-11-14T06:54:16;6.90;99.90
46508;DHT22;32223;53.654;10.014;2022-11-14T06:56:41;6.90;99.90
46508;DHT22;32223;53.654;10.014;2022-11-14T06:59:07;6.90;99.90
46508;DHT22;32223;53.654;10.014;2022-11-14T07:01:34;6.90;99.90
46508;DHT22;32223;53.654;10.014;2022-11-14T07:04:00;6.90;99.90
46508;DHT22;32223;53.654;10.014;2022-11-14T07:06:28;6.90;99.90
46508;DHT22;32223;53.654;10.014;2022-11-14T07:08:55;6.90;99.90
46508;DHT22;32223;53.654;10.014;2022-11-14T07:11:23;6.80;99.90
46508;DHT22;32223;53.654;10.014;2022-11-14T07:13:58;6.80;99.90
46508;DHT22;32223;53.654;10.014;2022-11-14T07:16:32;6.80;99.90
46508;DHT22;32223;53.654;10.014;2022-11-14T07:19:03;6.70;99.90
46508;DHT22;32223;53.654;10.014;2022-11-14T07:21:30;6.80;99.90
46508;DHT22;32223;53.654;10.014;2022-11-14T07:23:56;6.80;99.90
46508;DHT22;32223;53.654;10.014;2022-11-14T07:26:22;6.80;99.90
46508;DHT22;32223;53.654;10.014;2022-11-14T07:28:48;6.70;99.90
46508;DHT22;32223;53.654;10.014;2022-11-14T07:31:16;6.70;99.90
46508;DHT22;32223;53.654;10.014;2022-11-14T07:33:43;6.70;99.90
46508;DHT22;32223;53.654;10.014;2022-11-14T07:36:09;6.70;99.90
46508;DHT22;32223;53.654;10.014;2022-11-14T07:38:36;6.60;99.90
46508;DHT22;32223;53.654;10.014;2022-11-14T07:41:06;6.70;99.90
46508;DHT22;32223;53.654;10.014;2022-11-14T07:43:32;6.70;99.90
46508;DHT22;32223;53.654;10.014;2022-11-14T07:46:06;6.60;99.90
46508;DHT22;32223;53.654;10.014;2022-11-14T07:48:32;6.70;99.90
46508;DHT22;32223;53.654;10.014;2022-11-14T07:50:59;6.70;99.90
46508;DHT22;32223;53.654;10.014;2022-11-14T07:53:25;6.70;99.90
46508;DHT22;32223;53.654;10.014;2022-11-14T07:55:51;6.70;99.90
46508;DHT22;32223;53.654;10.014;2022-11-14T07:58:17;6.60;99.90
46508;DHT22;32223;53.654;10.014;2022-11-14T08:00:42;6.70;99.90
46508;DHT22;32223;53.654;10.014;2022-11-14T08:03:09;6.60;99.90
46508;DHT22;32223;53.654;10.014;2022-11-14T08:05:35;6.60;99.90
46508;DHT22;32223;53.654;10.014;2022-11-14T08:08:00;6.60;99.90
46508;DHT22;32223;53.654;10.014;2022-11-14T08:10:26;6.60;99.90
46508;DHT22;32223;53.654;10.014;2022-11-14T08:12:59;6.60;99.90
46508;DHT22;32223;53.654;10.014;2022-11-14T08:15:25;6.60;99.90
46508;DHT22;32223;53.654;10.014;2022-11-14T08:17:51;6.60;99.90
46508;DHT22;32223;53.654;10.014;2022-11-14T08:20:17;6.60;99.90
46508;DHT22;32223;53.654;10.014;2022-11-14T08:22:42;6.60;99.90
46508;DHT22;32223;53.654;10.014;2022-11-14T08:25:08;6.60;99.90
46508;DHT22;32223;53.654;10.014;2022-11-14T08:27:34;6.60;99.90
46508;DHT22;32223;53.654;10.014;2022-11-14T08:29:59;6.60;99.90
46508;DHT22;32223;53.654;10.014;2022-11-14T08:32:25;6.70;99.90
46508;DHT22;32223;53.654;10.014;2022-11-14T08:34:50;6.80;99.90
46508;DHT22;32223;53.654;10.014;2022-11-14T08:37:16;6.70;99.90
46508;DHT22;32223;53.654;10.014;2022-11-14T08:39:42;6.70;99.90
46508;DHT22;32223;53.654;10.014;2022-11-14T08:42:07;6.80;99.90
46508;DHT22;32223;53.654;10.014;2022-11-14T08:44:33;6.80;99.90
46508;DHT22;32223;53.654;10.014;2022-11-14T08:46:58;6.80;99.90
46508;DHT22;32223;53.654;10.014;2022-11-14T08:49:25;6.70;99.90
46508;DHT22;32223;53.654;10.014;2022-11-14T08:51:52;6.80;99.90
46508;DHT22;32223;53.654;10.014;2022-11-14T08:54:18;6.70;99.90
46508;DHT22;32223;53.654;10.014;2022-11-14T08:56:44;6.70;99.90
46508;DHT22;32223;53.654;10.014;2022-11-14T08:59:09;6.70;99.90
46508;DHT22;32223;53.654;10.014;2022-11-14T09:01:35;6.70;99.90
46508;DHT22;32223;53.654;10.014;2022-11-14T09:04:00;6.70;99.90
46508;DHT22;32223;53.654;10.014;2022-11-14T09:06:26;6.70;99.90
46508;DHT22;32223;53.654;10.014;2022-11-14T09:08:52;6.70;99.90
46508;DHT22;32223;53.654;10.014;2022-11-14T09:11:18;6.70;99.90
46508;DHT22;32223;53.654;10.014;2022-11-14T09:13:43;6.70;99.90
46508;DHT22;32223;53.654;10.014;2022-11-14T09:16:09;6.80;99.90
46508;DHT22;32223;53.654;10.014;2022-11-14T09:18:35;6.80;99.90
46508;DHT22;32223;53.654;10.014;2022-11-14T09:21:02;6.90;99.90
46508;DHT22;32223;53.654;10.014;2022-11-14T09:23:28;6.90;99.90
46508;DHT22;32223;53.654;10.014;2022-11-14T09:25:54;6.90;99.90
46508;DHT22;32223;53.654;10.014;2022-11-14T09:28:22;6.80;99.90
46508;DHT22;32223;53.654;10.014;2022-11-14T09:30:48;6.90;99.90
46508;DHT22;32223;53.654;10.014;2022-11-14T09:33:13;6.90;99.90
46508;DHT22;32223;53.654;10.014;2022-11-14T09:35:39;6.90;99.90
46508;DHT22;32223;53.654;10.014;2022-11-14T09:38:08;6.90;99.90
46508;DHT22;32223;53.654;10.014;2022-11-14T09:43:28;7.00;99.90
46508;DHT22;32223;53.654;10.014;2022-11-14T09:46:00;7.00;99.90
46508;DHT22;32223;53.654;10.014;2022-11-14T09:48:28;7.00;99.90
46508;DHT22;32223;53.654;10.014;2022-11-14T09:53:41;7.00;99.90
46508;DHT22;32223;53.654;10.014;2022-11-14T09:56:12;7.10;99.90
46508;DHT22;32223;53.654;10.014;2022-11-14T09:58:40;7.10;99.90
46508;DHT22;32223;53.654;10.014;2022-11-14T10:04:11;7.20;99.90
46508;DHT22;32223;53.654;10.014;2022-11-14T10:09:56;7.20;99.90
46508;DHT22;32223;53.654;10.014;2022-11-14T10:18:36;7.20;99.90
46508;DHT22;32223;53.654;10.014;2022-11-14T10:29:43;7.30;99.90
46508;DHT22;32223;53.654;10.014;2022-11-14T10:32:42;7.30;99.90
46508;DHT22;32223;53.654;10.014;2022-11-14T10:37:55;7.40;99.90
46508;DHT22;32223;53.654;10.014;2022-11-14T10:40:32;7.50;99.90
46508;DHT22;32223;53.654;10.014;2022-11-14T10:43:18;7.50;99.90
46508;DHT22;32223;53.654;10.014;2022-11-14T10:48:27;7.60;99.90
46508;DHT22;32223;53.654;10.014;2022-11-14T10:50:54;7.60;99.90
46508;DHT22;32223;53.654;10.014;2022-11-14T10:56:10;7.70;99.90
46508;DHT22;32223;53.654;10.014;2022-11-14T10:58:36;7.70;99.90
46508;DHT22;32223;53.654;10.014;2022-11-14T11:04:17;7.90;99.90
46508;DHT22;32223;53.654;10.014;2022-11-14T11:06:44;8.00;99.90
46508;DHT22;32223;53.654;10.014;2022-11-14T11:09:18;8.00;99.90
46508;DHT22;32223;53.654;10.014;2022-11-14T11:12:04;8.10;99.90
46508;DHT22;32223;53.654;10.014;2022-11-14T11:14:30;8.20;99.90
46508;DHT22;32223;53.654;10.014;2022-11-14T11:19:38;8.40;99.90
46508;DHT22;32223;53.654;10.014;2022-11-14T11:22:04;8.50;99.90
46508;DHT22;32223;53.654;10.014;2022-11-14T11:24:36;8.50;99.90
46508;DHT22;32223;53.654;10.014;2022-11-14T11:29:43;8.80;99.90
46508;DHT22;32223;53.654;10.014;2022-11-14T11:32:09;9.00;99.90
46508;DHT22;32223;53.654;10.014;2022-11-14T11:34:35;9.20;99.90
46508;DHT22;32223;53.654;10.014;2022-11-14T11:37:18;9.50;99.90
46508;DHT22;32223;53.654;10.014;2022-11-14T11:39:55;9.80;99.90
46508;DHT22;32223;53.654;10.014;2022-11-14T11:45:12;10.10;99.90
46508;DHT22;32223;53.654;10.014;2022-11-14T11:47:41;10.50;99.90
46508;DHT22;32223;53.654;10.014;2022-11-14T11:50:15;11.00;99.90
46508;DHT22;32223;53.654;10.014;2022-11-14T11:55:41;12.30;99.90
46508;DHT22;32223;53.654;10.014;2022-11-14T11:58:24;13.10;99.90
46508;DHT22;32223;53.654;10.014;2022-11-14T12:00:52;13.70;99.90
46508;DHT22;32223;53.654;10.014;2022-11-14T12:03:20;14.20;99.90
46508;DHT22;32223;53.654;10.014;2022-11-14T12:11:16;15.00;99.90
46508;DHT22;32223;53.654;10.014;2022-11-14T12:17:13;15.20;99.90
46508;DHT22;32223;53.654;10.014;2022-11-14T12:25:59;15.60;99.90
46508;DHT22;32223;53.654;10.014;2022-11-14T12:30:59;15.50;99.90
46508;DHT22;32223;53.654;10.014;2022-11-14T12:33:32;15.10;99.90
46508;DHT22;32223;53.654;10.014;2022-11-14T12:36:01;15.00;99.90
46508;DHT22;32223;53.654;10.014;2022-11-14T12:38:33;15.00;99.90
46508;DHT22;32223;53.654;10.014;2022-11-14T12:41:05;15.00;99.90
46508;DHT22;32223;53.654;10.014;2022-11-14T12:43:38;15.20;99.90
46508;DHT22;32223;53.654;10.014;2022-11-14T12:46:10;15.20;99.90
46508;DHT22;32223;53.654;10.014;2022-11-14T12:48:40;15.40;99.90
46508;DHT22;32223;53.654;10.014;2022-11-14T12:53:53;15.60;99.90
46508;DHT22;32223;53.654;10.014;2022-11-14T12:56:43;15.80;99.90
46508;DHT22;32223;53.654;10.014;2022-11-14T13:04:41;15.90;99.90
46508;DHT22;32223;53.654;10.014;2022-11-14T13:07:42;15.80;99.90
46508;DHT22;32223;53.654;10.014;2022-11-14T13:10:29;16.00;99.90
46508;DHT22;32223;53.654;10.014;2022-11-14T13:13:07;15.80;99.90
46508;DHT22;32223;53.654;10.014;2022-11-14T13:15:55;15.40;99.90
46508;DHT22;32223;53.654;10.014;2022-11-14T13:19:00;15.40;99.90
46508;DHT22;32223;53.654;10.014;2022-11-14T13:22:40;15.20;99.90
46508;DHT22;32223;53.654;10.014;2022-11-14T13:25:18;15.10;99.90
46508;DHT22;32223;53.654;10.014;2022-11-14T13:27:44;15.30;99.90
46508;DHT22;32223;53.654;10.014;2022-11-14T13:30:10;15.50;99.90
46508;DHT22;32223;53.654;10.014;2022-11-14T13:32:52;15.70;99.90
46508;DHT22;32223;53.654;10.014;2022-11-14T13:51:17;15.30;99.90
46508;DHT22;32223;53.654;10.014;2022-11-14T13:53:43;14.90;99.90
46508;DHT22;32223;53.654;10.014;2022-11-14T13:56:33;14.50;99.90
46508;DHT22;32223;53.654;10.014;2022-11-14T14:07:34;13.00;99.90
46508;DHT22;32223;53.654;10.014;2022-11-14T14:10:29;12.60;99.90
46508;DHT22;32223;53.654;10.014;2022-11-14T14:13:07;12.00;99.90
46508;DHT22;32223;53.654;10.014;2022-11-14T14:24:10;10.30;99.90
46508;DHT22;32223;53.654;10.014;2022-11-14T14:26:59;10.10;99.90
46508;DHT22;32223;53.654;10.014;2022-11-14T14:29:46;9.90;99.90
46508;DHT22;32223;53.654;10.014;2022-11-14T14:32:18;9.80;99.90
46508;DHT22;32223;53.654;10.014;2022-11-14T14:34:45;9.70;99.90
46508;DHT22;32223;53.654;10.014;2022-11-14T14:40:01;9.50;99.90
46508;DHT22;32223;53.654;10.014;2022-11-14T14:42:44;9.50;99.90
46508;DHT22;32223;53.654;10.014;2022-11-14T14:45:16;9.40;99.90
46508;DHT22;32223;53.654;10.014;2022-11-14T14:47:45;9.30;99.90
46508;DHT22;32223;53.654;10.014;2022-11-14T14:50:24;9.20;99.90
46508;DHT22;32223;53.654;10.014;2022-11-14T14:53:01;9.10;99.90
46508;DHT22;32223;53.654;10.014;2022-11-14T14:55:33;9.00;99.90
46508;DHT22;32223;53.654;10.014;2022-11-14T15:00:37;8.90;99.90
46508;DHT22;32223;53.654;10.014;2022-11-14T15:03:03;8.80;99.90
46508;DHT22;32223;53.654;10.014;2022-11-14T15:05:30;8.70;99.90
46508;DHT22;32223;53.654;10.014;2022-11-14T15:07:58;8.70;99.90
46508;DHT22;32223;53.654;10.014;2022-11-14T15:10:27;8.60;99.90
46508;DHT22;32223;53.654;10.014;2022-11-14T15:12:55;8.50;99.90
46508;DHT22;32223;53.654;10.014;2022-11-14T15:15:21;8.40;99.90
46508;DHT22;32223;53.654;10.014;2022-11-14T15:17:51;8.30;99.90
46508;DHT22;32223;53.654;10.014;2022-11-14T15:20:29;8.20;99.90
46508;DHT22;32223;53.654;10.014;2022-11-14T15:23:15;8.10;99.90
46508;DHT22;32223;53.654;10.014;2022-11-14T15:25:42;8.10;99.90
46508;DHT22;32223;53.654;10.014;2022-11-14T15:28:14;8.00;99.90
46508;DHT22;32223;53.654;10.014;2022-11-14T15:30:40;8.00;99.90
46508;DHT22;32223;53.654;10.014;2022-11-14T15:33:26;7.90;99.90
46508;DHT22;32223;53.654;10.014;2022-11-14T15:36:12;7.90;99.90
46508;DHT22;32223;53.654;10.014;2022-11-14T15:38:38;7.80;99.90
46508;DHT22;32223;53.654;10.014;2022-11-14T15:41:19;7.70;99.90
46508;DHT22;32223;53.654;10.014;2022-11-14T15:43:52;7.60;99.90
46508;DHT22;32223;53.654;10.014;2022-11-14T15:46:41;7.70;99.90
46508;DHT22;32223;53.654;10.014;2022-11-14T15:49:20;7.60;99.90
46508;DHT22;32223;53.654;10.014;2022-11-14T15:54:28;7.50;99.90
46508;DHT22;32223;53.654;10.014;2022-11-14T15:56:56;7.50;99.90
46508;DHT22;32223;53.654;10.014;2022-11-14T15:59:22;7.50;99.90
46508;DHT22;32223;53.654;10.014;2022-11-14T16:01:51;7.40;99.90
46508;DHT22;32223;53.654;10.014;2022-11-14T16:04:29;7.40;99.90
46508;DHT22;32223;53.654;10.014;2022-11-14T16:06:55;7.30;99.90
46508;DHT22;32223;53.654;10.014;2022-11-14T16:09:21;7.30;99.90
46508;DHT22;32223;53.654;10.014;2022-11-14T16:11:47;7.30;99.90
46508;DHT22;32223;53.654;10.014;2022-11-14T16:14:12;7.30;99.90
46508;DHT22;32223;53.654;10.014;2022-11-14T16:16:38;7.30;99.90
46508;DHT22;32223;53.654;10.014;2022-11-14T16:19:04;7.30;99.90
46508;DHT22;32223;53.654;10.014;2022-11-14T16:21:30;7.30;99.90
46508;DHT22;32223;53.654;10.014;2022-11-14T16:23:56;7.30;99.90
46508;DHT22;32223;53.654;10.014;2022-11-14T16:26:22;7.30;99.90
46508;DHT22;32223;53.654;10.014;2022-11-14T16:28:50;7.20;99.90
46508;DHT22;32223;53.654;10.014;2022-11-14T16:31:16;7.20;99.90
46508;DHT22;32223;53.654;10.014;2022-11-14T16:33:42;7.10;99.90
46508;DHT22;32223;53.654;10.014;2022-11-14T16:36:10;7.20;99.90
46508;DHT22;32223;53.654;10.014;2022-11-14T16:38:36;7.10;99.90
46508;DHT22;32223;53.654;10.014;2022-11-14T16:41:08;7.10;99.90
46508;DHT22;32223;53.654;10.014;2022-11-14T16:43:34;7.10;99.90
46508;DHT22;32223;53.654;10.014;2022-11-14T16:46:06;7.00;99.90
46508;DHT22;32223;53.654;10.014;2022-11-14T16:48:32;7.00;99.90
46508;DHT22;32223;53.654;10.014;2022-11-14T16:51:02;7.10;99.90
46508;DHT22;32223;53.654;10.014;2022-11-14T16:53:28;7.00;99.90
46508;DHT22;32223;53.654;10.014;2022-11-14T16:55:54;7.10;99.90
46508;DHT22;32223;53.654;10.014;2022-11-14T16:58:19;7.00;99.90
46508;DHT22;32223;53.654;10.014;2022-11-14T17:00:45;7.00;99.90
46508;DHT22;32223;53.654;10.014;2022-11-14T17:03:10;7.00;99.90
46508;DHT22;32223;53.654;10.014;2022-11-14T17:05:47;7.00;99.90
46508;DHT22;32223;53.654;10.014;2022-11-14T17:08:13;7.00;99.90
46508;DHT22;32223;53.654;10.014;2022-11-14T17:10:44;7.00;99.90
46508;DHT22;32223;53.654;10.014;2022-11-14T17:13:11;7.00;99.90
46508;DHT22;32223;53.654;10.014;2022-11-14T17:15:37;7.00;99.90
46508;DHT22;32223;53.654;10.014;2022-11-14T17:18:03;6.90;99.90
46508;DHT22;32223;53.654;10.014;2022-11-14T17:20:29;6.90;99.90
46508;DHT22;32223;53.654;10.014;2022-11-14T17:22:55;6.90;99.90
46508;DHT22;32223;53.654;10.014;2022-11-14T17:25:21;6.90;99.90
46508;DHT22;32223;53.654;10.014;2022-11-14T17:27:47;6.90;99.90
46508;DHT22;32223;53.654;10.014;2022-11-14T17:30:14;6.90;99.90
46508;DHT22;32223;53.654;10.014;2022-11-14T17:32:40;6.80;99.90
46508;DHT22;32223;53.654;10.014;2022-11-14T17:35:06;6.80;99.90